createdAt,value
2022-08-04T00:04:40.184Z,12.02
2022-08-04T00:07:45.020Z,11.65
2022-08-04T00:10:15.354Z,11.77
2022-08-04T00:12:47.270Z,11.77
2022-08-04T00:15:17.114Z,11.35
2022-08-04T00:17:50.248Z,12.10
2022-08-04T00:20:19.500Z,10.45
2022-08-04T00:22:48.840Z,11.50
2022-08-04T00:25:16.877Z,11.40
2022-08-04T00:27:45.136Z,11.02
2022-08-04T00:30:13.030Z,11.48
2022-08-04T00:32:41.801Z,11.32
2022-08-04T00:35:10.785Z,11.98
2022-08-04T00:37:38.975Z,10.82
2022-08-04T00:40:19.280Z,12.05
2022-08-04T00:42:59.152Z,12.30
2022-08-04T00:46:10.913Z,11.60
2022-08-04T00:49:04.420Z,11.52
2022-08-04T00:51:34.835Z,10.88
2022-08-04T00:54:27.581Z,11.45
2022-08-04T00:57:29.937Z,12.00
2022-08-04T01:00:15.309Z,12.07
2022-08-04T01:02:54.931Z,13.47
2022-08-04T01:05:37.508Z,13.10
2022-08-04T01:08:05.315Z,12.75
2022-08-04T01:10:57.766Z,13.00
2022-08-04T01:13:37.565Z,14.07
2022-08-04T01:16:06.321Z,14.43
2022-08-04T01:18:43.720Z,14.75
2022-08-04T01:21:34.784Z,14.27
2022-08-04T01:24:26.839Z,15.27
2022-08-04T01:27:10.620Z,15.13
2022-08-04T01:29:55.843Z,16.17
2022-08-04T01:32:32.394Z,15.35
2022-08-04T01:35:46.458Z,15.27
2022-08-04T01:38:30.668Z,14.48
2022-08-04T01:41:00.856Z,15.00
2022-08-04T01:43:29.490Z,14.52
2022-08-04T01:46:04.702Z,15.05
2022-08-04T01:48:33.955Z,14.05
2022-08-04T01:51:06.906Z,14.15
2022-08-04T01:53:41.234Z,14.63
2022-08-04T01:56:11.291Z,15.02
2022-08-04T01:58:40.304Z,14.50
2022-08-04T02:01:12.906Z,14.52
2022-08-04T02:04:20.460Z,14.13
2022-08-04T02:06:39.059Z,15.60
2022-08-04T02:09:16.652Z,15.10
2022-08-04T02:11:51.618Z,15.40
2022-08-04T02:14:44.542Z,14.93
2022-08-04T02:17:26.225Z,15.40
2022-08-04T02:20:10.376Z,15.57
2022-08-04T02:22:50.260Z,15.82
2022-08-04T02:25:23.788Z,14.13
2022-08-04T02:27:59.356Z,15.25
2022-08-04T02:30:34.724Z,13.88
2022-08-04T02:33:04.211Z,14.57
2022-08-04T02:35:37.993Z,14.10
2022-08-04T02:38:26.006Z,15.05
2022-08-04T02:41:00.149Z,16.52
2022-08-04T02:43:52.211Z,14.93
2022-08-04T02:46:20.258Z,15.88
2022-08-04T02:48:49.403Z,14.75
2022-08-04T02:51:20.475Z,15.25
2022-08-04T02:53:50.840Z,16.25
2022-08-04T02:56:20.423Z,15.98
2022-08-04T02:58:51.957Z,14.85
2022-08-04T03:01:20.304Z,15.32
2022-08-04T03:03:53.735Z,15.50
2022-08-04T03:06:36.014Z,14.95
2022-08-04T03:09:35.270Z,15.38
2022-08-04T03:12:21.610Z,15.60
2022-08-04T03:15:07.075Z,15.70
2022-08-04T03:17:52.432Z,16.60
2022-08-04T03:20:50.196Z,16.30
2022-08-04T03:23:30.966Z,16.25
2022-08-04T03:26:19.724Z,16.48
2022-08-04T03:29:06.101Z,16.48
2022-08-04T03:31:51.925Z,15.38
2022-08-04T03:34:56.751Z,16.10
2022-08-04T03:37:45.014Z,14.27
2022-08-04T03:40:15.383Z,15.05
2022-08-04T03:43:07.546Z,15.15
2022-08-04T03:45:59.772Z,15.27
2022-08-04T03:48:57.994Z,16.48
2022-08-04T03:51:55.045Z,16.67
2022-08-04T03:54:59.471Z,15.82
2022-08-04T03:57:46.044Z,13.55
2022-08-04T04:00:19.034Z,13.63
2022-08-04T04:03:08.399Z,13.88
2022-08-04T04:05:59.948Z,14.18
2022-08-04T04:08:49.566Z,13.65
2022-08-04T04:11:31.500Z,15.45
2022-08-04T04:14:08.118Z,15.73
2022-08-04T04:16:56.836Z,15.18
2022-08-04T04:19:30.602Z,12.60
2022-08-04T04:22:38.473Z,15.10
2022-08-04T04:25:25.653Z,13.10
2022-08-04T04:27:52.905Z,14.20
2022-08-04T04:30:42.568Z,13.80
2022-08-04T04:33:44.542Z,14.25
2022-08-04T04:36:38.456Z,12.02
2022-08-04T04:39:19.305Z,13.10
2022-08-04T04:42:24.642Z,12.75
2022-08-04T04:44:56.973Z,12.18
2022-08-04T04:48:09.541Z,13.38
2022-08-04T04:51:07.212Z,11.73
2022-08-04T04:53:59.996Z,12.40
2022-08-04T04:56:47.299Z,12.20
2022-08-04T04:59:19.846Z,11.52
2022-08-04T05:02:06.580Z,11.52
2022-08-04T05:04:49.203Z,11.23
2022-08-04T05:07:28.532Z,12.13
2022-08-04T05:10:18.334Z,11.35
2022-08-04T05:14:37.888Z,10.13
2022-08-04T05:15:58.230Z,10.52
2022-08-04T05:18:27.627Z,9.48
2022-08-04T05:21:08.523Z,8.30
2022-08-04T05:23:38.653Z,7.75
2022-08-04T05:26:12.908Z,7.70
2022-08-04T05:28:44.020Z,7.20
2022-08-04T05:31:29.961Z,7.65
2022-08-04T05:34:03.837Z,6.82
2022-08-04T05:36:41.360Z,6.82
2022-08-04T05:39:25.572Z,7.60
2022-08-04T05:41:55.758Z,7.05
2022-08-04T05:44:27.083Z,6.95
2022-08-04T05:46:59.622Z,6.20
2022-08-04T05:49:28.911Z,6.72
2022-08-04T05:52:03.358Z,7.28
2022-08-04T05:54:33.129Z,6.97
2022-08-04T05:57:05.393Z,7.20
2022-08-04T05:59:35.519Z,6.85
2022-08-04T06:02:04.570Z,6.65
2022-08-04T06:04:37.814Z,7.13
2022-08-04T06:09:34.133Z,6.43
2022-08-04T06:12:05.202Z,7.10
2022-08-04T06:14:36.812Z,7.45
2022-08-04T06:18:32.384Z,6.78
2022-08-04T06:20:01.128Z,7.43
2022-08-04T06:22:35.485Z,7.38
2022-08-04T06:25:06.049Z,6.45
2022-08-04T06:27:37.173Z,7.63
2022-08-04T06:30:10.272Z,6.68
2022-08-04T06:32:47.978Z,6.28
2022-08-04T06:35:19.768Z,5.93
2022-08-04T06:37:48.897Z,5.70
2022-08-04T06:40:31.513Z,6.50
2022-08-04T06:43:01.514Z,6.30
2022-08-04T06:45:29.935Z,6.63
2022-08-04T06:47:58.832Z,5.43
2022-08-04T06:51:32.428Z,4.90
2022-08-04T06:53:17.410Z,5.93
2022-08-04T06:55:49.276Z,5.63
2022-08-04T06:58:20.095Z,5.10
2022-08-04T07:00:48.826Z,6.38
2022-08-04T07:03:19.419Z,5.28
2022-08-04T07:05:48.857Z,5.30
2022-08-04T07:08:16.271Z,5.43
2022-08-04T07:10:45.339Z,5.10
2022-08-04T07:13:13.713Z,4.80
2022-08-04T07:15:46.223Z,4.80
2022-08-04T07:18:14.732Z,4.70
2022-08-04T07:20:46.851Z,5.10
2022-08-04T07:23:20.078Z,4.22
2022-08-04T07:25:59.975Z,4.35
2022-08-04T07:28:40.386Z,4.25
2022-08-04T07:31:10.908Z,3.80
2022-08-04T07:34:16.943Z,4.30
2022-08-04T07:36:50.422Z,4.00
2022-08-04T07:39:27.359Z,3.30
2022-08-04T07:42:01.649Z,4.05
2022-08-04T07:44:34.197Z,3.47
2022-08-04T07:47:07.494Z,2.88
2022-08-04T07:49:55.589Z,4.75
2022-08-04T07:52:24.917Z,10.32
2022-08-04T07:54:54.031Z,4.18
2022-08-04T07:57:41.242Z,3.50
2022-08-04T08:00:12.309Z,3.28
2022-08-04T08:02:40.455Z,4.00
2022-08-04T08:05:10.810Z,3.42
2022-08-04T08:07:50.529Z,3.47
2022-08-04T08:10:23.546Z,2.95
2022-08-04T08:12:53.845Z,2.92
2022-08-04T08:15:22.108Z,3.30
2022-08-04T08:17:59.564Z,3.30
2022-08-04T08:20:32.244Z,3.38
2022-08-04T08:23:02.671Z,3.00
2022-08-04T08:25:32.212Z,3.30
2022-08-04T08:28:04.790Z,3.33
2022-08-04T08:30:34.258Z,3.50
2022-08-04T08:33:06.218Z,3.30
2022-08-04T08:35:52.096Z,3.28
2022-08-04T08:38:39.474Z,2.88
2022-08-04T08:41:19.696Z,3.47
2022-08-04T08:44:07.698Z,3.00
2022-08-04T08:46:55.478Z,3.38
2022-08-04T08:50:02.229Z,3.50
2022-08-04T08:52:57.608Z,3.00
2022-08-04T08:55:33.053Z,2.97
2022-08-04T08:58:07.545Z,3.08
2022-08-04T09:00:37.532Z,3.10
2022-08-04T09:03:05.358Z,2.80
2022-08-04T09:05:48.613Z,2.80
2022-08-04T09:08:52.611Z,2.72
2022-08-04T09:11:26.272Z,3.40
2022-08-04T09:14:11.489Z,3.03
2022-08-04T09:16:47.443Z,3.30
2022-08-04T09:19:38.464Z,2.58
2022-08-04T09:22:51.989Z,3.05
2022-08-04T09:25:25.864Z,3.20
2022-08-04T09:27:55.679Z,3.10
2022-08-04T09:31:00.935Z,3.35
2022-08-04T09:33:58.292Z,2.90
2022-08-04T09:36:47.213Z,3.33
2022-08-04T09:39:28.504Z,3.13
2022-08-04T09:42:34.690Z,2.90
2022-08-04T09:45:26.579Z,3.10
2022-08-04T09:48:11.094Z,3.42
2022-08-04T09:50:40.176Z,2.85
2022-08-04T09:53:51.137Z,3.17
2022-08-04T09:56:27.423Z,3.00
2022-08-04T09:59:08.128Z,3.40
2022-08-04T10:01:37.394Z,3.03
2022-08-04T10:04:10.217Z,3.60
2022-08-04T10:07:14.819Z,3.45
2022-08-04T10:10:21.577Z,3.45
2022-08-04T10:12:51.533Z,3.25
2022-08-04T10:15:29.421Z,3.65
2022-08-04T10:18:08.566Z,3.15
2022-08-04T10:20:58.976Z,11.23
2022-08-04T10:23:56.522Z,4.80
2022-08-04T10:26:34.219Z,3.45
2022-08-04T10:29:28.893Z,3.80
2022-08-04T10:32:04.555Z,6.80
2022-08-04T10:34:40.318Z,4.72
2022-08-04T10:38:01.352Z,4.07
2022-08-04T10:40:36.590Z,3.80
2022-08-04T10:43:23.100Z,3.90
2022-08-04T10:46:18.934Z,4.03
2022-08-04T10:49:04.193Z,4.07
2022-08-04T10:51:57.310Z,4.38
2022-08-04T10:54:53.103Z,4.50
2022-08-04T10:57:26.785Z,4.50
2022-08-04T11:00:15.027Z,4.70
2022-08-04T11:03:06.030Z,4.70
2022-08-04T11:05:44.178Z,4.78
2022-08-04T11:08:20.526Z,4.57
2022-08-04T11:10:52.388Z,4.32
2022-08-04T11:13:22.110Z,4.40
2022-08-04T11:15:59.525Z,4.45
2022-08-04T11:18:35.074Z,4.47
2022-08-04T11:21:26.439Z,4.65
2022-08-04T11:24:04.049Z,4.38
2022-08-04T11:26:49.345Z,4.80
2022-08-04T11:29:36.639Z,4.30
2022-08-04T11:32:08.830Z,4.47
2022-08-04T11:34:38.248Z,3.77
2022-08-04T11:37:18.404Z,4.25
2022-08-04T11:40:24.642Z,4.00
2022-08-04T11:43:03.268Z,4.15
2022-08-04T11:45:51.822Z,3.72
2022-08-04T11:48:31.275Z,3.80
2022-08-04T11:51:02.723Z,3.38
2022-08-04T11:53:36.832Z,3.55
2022-08-04T11:56:11.068Z,4.05
2022-08-04T11:58:39.810Z,3.92
2022-08-04T12:01:21.647Z,3.65
2022-08-04T12:04:04.535Z,3.65
2022-08-04T12:07:28.808Z,3.60
2022-08-04T12:10:41.463Z,3.80
2022-08-04T12:13:33.093Z,3.50
2022-08-04T12:16:22.058Z,4.53
2022-08-04T12:18:59.523Z,3.80
2022-08-04T12:21:36.433Z,6.50
2022-08-04T12:24:16.533Z,4.55
2022-08-04T12:26:53.162Z,3.97
2022-08-04T12:29:23.860Z,4.47
2022-08-04T12:32:02.530Z,4.45
2022-08-04T12:34:40.139Z,3.95
2022-08-04T12:37:27.597Z,4.00
2022-08-04T12:40:28.291Z,5.35
2022-08-04T12:43:02.580Z,6.30
2022-08-04T12:45:31.904Z,12.70
2022-08-04T12:48:01.051Z,5.47
2022-08-04T12:50:29.404Z,4.10
2022-08-04T12:53:02.248Z,5.88
2022-08-04T12:55:34.531Z,5.75
2022-08-04T12:58:14.285Z,4.00
2022-08-04T13:00:47.982Z,4.07
2022-08-04T13:03:17.435Z,3.97
2022-08-04T13:05:45.935Z,3.95
2022-08-04T13:08:14.183Z,4.03
2022-08-04T13:10:45.253Z,3.67
2022-08-04T13:13:16.634Z,3.78
2022-08-04T13:15:47.185Z,3.90
2022-08-04T13:18:33.382Z,3.70
2022-08-04T13:21:49.543Z,3.80
2022-08-04T13:24:21.232Z,4.15
2022-08-04T13:26:57.575Z,3.88
2022-08-04T13:29:59.371Z,3.70
2022-08-04T13:32:31.870Z,4.00
2022-08-04T13:35:01.308Z,3.65
2022-08-04T13:37:37.056Z,4.22
2022-08-04T13:40:08.664Z,3.47
2022-08-04T13:42:39.142Z,4.10
2022-08-04T13:45:08.589Z,4.00
2022-08-04T13:47:38.884Z,4.38
2022-08-04T13:50:11.639Z,4.22
2022-08-04T13:52:42.183Z,3.58
2022-08-04T13:55:23.014Z,3.67
2022-08-04T13:57:56.441Z,3.67
2022-08-04T14:00:30.272Z,4.05
2022-08-04T14:03:23.228Z,3.72
2022-08-04T14:06:11.812Z,3.67
2022-08-04T14:08:59.461Z,3.78
2022-08-04T14:12:07.552Z,3.75
2022-08-04T14:14:32.332Z,3.55
2022-08-04T14:17:05.903Z,3.80
2022-08-04T14:19:57.073Z,3.67
2022-08-04T14:22:28.024Z,3.85
2022-08-04T14:25:04.794Z,3.60
2022-08-04T14:27:45.700Z,7.05
2022-08-04T14:30:36.369Z,3.50
2022-08-04T14:34:01.141Z,3.60
2022-08-04T14:35:59.650Z,3.88
2022-08-04T14:38:56.569Z,3.95
2022-08-04T14:41:34.525Z,3.75
2022-08-04T14:44:04.130Z,3.72
2022-08-04T14:46:36.357Z,3.63
2022-08-04T14:49:12.570Z,3.85
2022-08-04T14:51:44.250Z,3.97
2022-08-04T14:54:18.726Z,3.90
2022-08-04T14:57:09.423Z,3.97
2022-08-04T14:59:59.772Z,3.75
2022-08-04T15:02:30.721Z,3.45
2022-08-04T15:04:59.523Z,3.75
2022-08-04T15:07:47.728Z,4.80
2022-08-04T15:10:15.458Z,3.78
2022-08-04T15:12:43.069Z,3.75
2022-08-04T15:15:35.495Z,3.90
2022-08-04T15:18:00.071Z,3.50
2022-08-04T15:20:28.710Z,3.60
2022-08-04T15:22:56.124Z,3.08
2022-08-04T15:25:24.032Z,3.30
2022-08-04T15:27:53.500Z,3.13
2022-08-04T15:30:21.291Z,3.20
2022-08-04T15:32:55.035Z,3.40
2022-08-04T15:35:34.936Z,3.10
2022-08-04T15:38:11.986Z,3.17
2022-08-04T15:40:40.585Z,2.97
2022-08-04T15:43:13.515Z,3.03
2022-08-04T15:46:43.005Z,3.05
2022-08-04T15:48:54.899Z,3.45
2022-08-04T15:51:32.786Z,2.83
2022-08-04T15:54:03.237Z,2.92
2022-08-04T15:56:36.574Z,2.67
2022-08-04T15:59:04.222Z,2.90
2022-08-04T16:01:32.570Z,2.75
2022-08-04T16:04:01.846Z,2.72
2022-08-04T16:06:30.490Z,2.72
2022-08-04T16:09:01.305Z,3.42
2022-08-04T16:11:32.103Z,2.83
2022-08-04T16:14:01.714Z,2.63
2022-08-04T16:16:50.830Z,2.90
2022-08-04T16:19:40.373Z,2.63
2022-08-04T16:22:12.319Z,2.75
2022-08-04T16:24:42.514Z,2.72
2022-08-04T16:27:12.363Z,3.05
2022-08-04T16:29:45.382Z,2.95
2022-08-04T16:32:22.959Z,2.65
2022-08-04T16:35:18.328Z,2.95
2022-08-04T16:37:45.930Z,3.10
2022-08-04T16:40:38.194Z,2.95
2022-08-04T16:43:13.369Z,4.00
2022-08-04T16:45:59.565Z,3.13
2022-08-04T16:48:32.385Z,3.13
2022-08-04T16:51:05.077Z,2.90
2022-08-04T16:53:52.576Z,2.90
2022-08-04T16:56:29.063Z,2.95
2022-08-04T16:58:57.053Z,2.92
2022-08-04T17:01:33.280Z,2.75
2022-08-04T17:04:07.386Z,2.72
2022-08-04T17:06:37.379Z,3.55
2022-08-04T17:09:16.439Z,2.60
2022-08-04T17:11:45.379Z,2.67
2022-08-04T17:14:13.915Z,3.08
2022-08-04T17:16:43.444Z,2.80
2022-08-04T17:19:25.052Z,2.90
2022-08-04T17:22:04.267Z,2.75
2022-08-04T17:24:32.884Z,2.90
2022-08-04T17:27:00.993Z,3.40
2022-08-04T17:29:44.276Z,3.25
2022-08-04T17:32:17.277Z,3.00
2022-08-04T17:34:50.596Z,3.78
2022-08-04T17:37:39.998Z,2.92
2022-08-04T17:40:18.271Z,2.80
2022-08-04T17:44:04.883Z,3.88
2022-08-04T17:46:15.681Z,3.00
2022-08-04T17:49:05.199Z,2.75
2022-08-04T17:52:01.861Z,3.03
2022-08-04T17:57:21.363Z,3.28
2022-08-04T17:59:58.841Z,2.95
2022-08-04T18:02:32.361Z,3.28
2022-08-04T18:05:07.234Z,3.03
2022-08-04T18:08:38.249Z,3.08
2022-08-04T18:10:52.182Z,3.38
2022-08-04T18:13:27.432Z,3.30
2022-08-04T18:16:04.977Z,3.25
2022-08-04T18:18:33.288Z,4.05
2022-08-04T18:21:03.385Z,3.80
2022-08-04T18:23:33.808Z,3.33
2022-08-04T18:26:03.753Z,3.70
2022-08-04T18:28:33.289Z,3.58
2022-08-04T18:31:02.856Z,3.72
2022-08-04T18:33:40.125Z,3.67
2022-08-04T18:36:32.707Z,3.85
2022-08-04T18:39:13.321Z,4.13
2022-08-04T18:42:02.057Z,4.32
2022-08-04T18:44:51.807Z,4.38
2022-08-04T18:47:23.438Z,3.83
2022-08-04T18:50:40.146Z,4.30
2022-08-04T18:52:45.068Z,4.68
2022-08-04T18:55:55.758Z,5.10
2022-08-04T18:58:06.314Z,4.15
2022-08-04T19:00:35.918Z,4.60
2022-08-04T19:03:05.170Z,4.30
2022-08-04T19:05:38.016Z,4.10
2022-08-04T19:08:32.666Z,4.43
2022-08-04T19:10:59.815Z,4.78
2022-08-04T19:13:34.639Z,4.53
2022-08-04T19:16:03.266Z,4.40
2022-08-04T19:18:32.427Z,4.90
2022-08-04T19:21:05.147Z,4.72
2022-08-04T19:24:27.297Z,4.70
2022-08-04T19:26:27.972Z,5.28
2022-08-04T19:28:57.017Z,5.33
2022-08-04T19:31:34.129Z,5.28
2022-08-04T19:34:08.044Z,5.00
2022-08-04T19:36:36.565Z,5.45
2022-08-04T19:39:11.289Z,6.38
2022-08-04T19:42:05.616Z,5.20
2022-08-04T19:44:29.476Z,6.45
2022-08-04T19:47:00.890Z,6.10
2022-08-04T19:50:02.958Z,5.50
2022-08-04T19:52:33.507Z,5.85
2022-08-04T19:55:10.686Z,5.85
2022-08-04T19:57:46.591Z,6.05
2022-08-04T20:00:34.122Z,5.60
2022-08-04T20:03:03.355Z,5.65
2022-08-04T20:05:52.652Z,5.55
2022-08-04T20:08:20.202Z,5.82
2022-08-04T20:10:51.761Z,5.97
2022-08-04T20:13:20.978Z,5.97
2022-08-04T20:15:55.494Z,5.97
2022-08-04T20:18:36.527Z,5.95
2022-08-04T20:21:20.258Z,5.72
2022-08-04T20:23:52.713Z,5.95
2022-08-04T20:26:20.497Z,6.45
2022-08-04T20:31:35.808Z,6.72
2022-08-04T20:34:11.084Z,5.97
2022-08-04T20:36:38.736Z,5.55
2022-08-04T20:39:18.112Z,6.63
2022-08-04T20:41:50.111Z,6.85
2022-08-04T20:44:22.200Z,5.88
2022-08-04T20:46:52.436Z,6.38
2022-08-04T20:49:20.150Z,6.50
2022-08-04T20:51:50.399Z,6.72
2022-08-04T20:54:26.393Z,6.63
2022-08-04T20:56:55.630Z,7.03
2022-08-04T20:59:28.871Z,6.82
2022-08-04T21:01:56.930Z,7.18
2022-08-04T21:04:32.415Z,6.85
2022-08-04T21:07:02.846Z,7.32
2022-08-04T21:09:37.435Z,6.97
2022-08-04T21:15:14.484Z,7.45
2022-08-04T21:17:59.223Z,7.53
2022-08-04T21:23:20.822Z,7.45
2022-08-04T21:25:58.414Z,7.70
2022-08-04T21:28:26.198Z,7.75
2022-08-04T21:30:55.842Z,7.55
2022-08-04T21:33:50.155Z,7.47
2022-08-04T21:36:13.497Z,7.82
2022-08-04T21:38:41.842Z,7.20
2022-08-04T21:41:20.377Z,7.40
2022-08-04T21:43:58.977Z,6.85
2022-08-04T21:46:29.965Z,7.75
2022-08-04T21:48:58.880Z,7.70
2022-08-04T21:51:59.056Z,7.30
2022-08-04T21:54:18.118Z,8.35
2022-08-04T21:56:50.800Z,8.98
2022-08-04T21:59:23.849Z,7.88
2022-08-04T22:02:00.140Z,7.97
2022-08-04T22:04:30.830Z,7.68
2022-08-04T22:07:03.045Z,8.45
2022-08-04T22:09:38.918Z,7.93
2022-08-04T22:12:10.350Z,8.30
2022-08-04T22:14:41.510Z,8.98
2022-08-04T22:17:23.758Z,9.35
2022-08-04T22:19:55.289Z,8.20
2022-08-04T22:22:29.131Z,8.02
2022-08-04T22:25:01.645Z,7.75
2022-08-04T22:27:55.036Z,8.23
2022-08-04T22:30:23.711Z,7.80
2022-08-04T22:32:51.119Z,8.50
2022-08-04T22:35:36.586Z,7.35
2022-08-04T22:38:27.943Z,8.32
2022-08-04T22:41:03.694Z,8.30
2022-08-04T22:43:34.667Z,8.40
2022-08-04T22:46:05.371Z,8.63
2022-08-04T22:48:36.334Z,7.80
2022-08-04T22:51:05.534Z,8.10
2022-08-04T22:53:33.978Z,7.93
2022-08-04T22:56:09.762Z,8.15
2022-08-04T22:58:45.256Z,8.18
2022-08-04T23:01:15.497Z,8.00
2022-08-04T23:03:51.121Z,8.55
2022-08-04T23:06:28.670Z,8.30
2022-08-04T23:08:57.753Z,9.13
2022-08-04T23:11:34.461Z,8.05
2022-08-04T23:14:04.825Z,7.95
2022-08-04T23:16:40.367Z,8.43
2022-08-04T23:19:10.044Z,7.90
2022-08-04T23:21:47.590Z,8.45
2022-08-04T23:24:29.538Z,8.07
2022-08-04T23:26:58.932Z,8.95
2022-08-04T23:29:27.494Z,8.93
2022-08-04T23:31:59.573Z,8.88
2022-08-04T23:34:29.577Z,8.27
2022-08-04T23:36:59.115Z,8.27
2022-08-04T23:40:03.473Z,8.27
2022-08-04T23:42:21.119Z,8.45
2022-08-04T23:44:50.259Z,8.85
2022-08-04T23:48:16.191Z,9.05
2022-08-04T23:50:05.994Z,8.20
2022-08-04T23:52:33.634Z,8.35
2022-08-04T23:55:02.335Z,8.82
2022-08-04T23:58:02.317Z,8.98
